Pagina principale
METAR-TAF:

METAR-TAF

Aeroporti :

Aeroporto di Genova-Sestri

Genova, Italia

latitudine: 44-25N, longitudine: 008-51E, altezza: 2 m

Osservazione

Il bollettino è stato emesso 18 minuti fa, alle 14:20 UTC
Vento 6 kt da sud, variando fra sud/sud-est e sud-ovest
Temperature 16°C
Umidità 48%
Pressione 1031 hPa
Visibilità 10 km o più
nessuna nube inferiore a 1500 m e nessun cumulonembo

METAR: LIMJ 021420Z 19006KT 150V230 CAVOK 16/05 Q1031

Ora: 15:38 (14:38 UTC)

Previsione

Il bollettino è stato emesso 3 ore e 38 minuti fa, alle 11:00 UTC
Previsione valida dal 02 alle 12 UTC al 03 alle 12 UTC
Vento 13 kt da nord-est
Visibilità 10 km o più
nessuna nube inferiore a 1500 m e nessun cumulonembo
Evoluzione graduale
dal 03 alle 06 UTC al 03 alle 08 UTC
Vento 5 kt da direzioni variabili

TAF: LIMJ 021100Z 0212/0312 04013KT CAVOK BECMG 0306/0308 VRB05KT

Osservazioni e previsioni meteorologiche di più di 4000 aeroporti (messaggi METAR e TAF).

Le stazioni disponibili sono rappresentate dai dischi gialli e rossi sulla carta.

Puntare il mouse per vedere il nome della stazione.

Clicca sopra per visualizzare le osservazioni e previsioni meteorologiche.

Per cambiare la mappa : fare clic sui pulsanti verdi con una croce nera per ingrandire, il pulsante verde con un trattino per diminuire, o sulla freccia verde per le mappe adiacenti.


METAR-TAF: